createdAt,value
2018-09-25T00:02:22.619Z,95615.45
2018-09-25T00:04:57.618Z,95619.05
2018-09-25T00:07:32.573Z,95625.63
2018-09-25T00:10:07.489Z,95632.80
2018-09-25T00:12:43.196Z,95634.55
2018-09-25T00:15:18.140Z,95631.25
2018-09-25T00:17:52.973Z,95639.30
2018-09-25T00:20:27.888Z,95644.00
2018-09-25T00:23:03.479Z,95648.70
2018-09-25T00:25:38.188Z,95644.98
2018-09-25T00:28:13.086Z,95643.29
2018-09-25T00:30:47.967Z,95654.48
2018-09-25T00:33:24.103Z,95658.18
2018-09-25T00:35:58.883Z,95665.51
2018-09-25T00:38:33.976Z,95675.44
2018-09-25T00:41:08.988Z,95679.63
2018-09-25T00:43:44.906Z,95677.72
2018-09-25T00:46:19.869Z,95685.48
2018-09-25T00:48:54.587Z,95700.55
2018-09-25T00:51:29.231Z,95709.39
2018-09-25T00:54:04.428Z,95705.72
2018-09-25T00:56:39.237Z,95712.16
2018-09-25T00:59:14.264Z,95711.50
2018-09-25T01:01:49.073Z,95714.14
2018-09-25T01:04:24.989Z,95714.03
2018-09-25T01:07:00.042Z,95708.72
2018-09-25T01:09:34.871Z,95706.70
2018-09-25T01:12:09.962Z,95717.13
2018-09-25T01:14:45.445Z,95705.78
2018-09-25T01:17:20.172Z,95712.49
2018-09-25T01:19:55.006Z,95710.69
2018-09-25T01:22:29.917Z,95716.27
2018-09-25T01:25:05.629Z,95717.78
2018-09-25T01:27:40.418Z,95722.76
2018-09-25T01:30:15.164Z,95716.34
2018-09-25T01:32:50.030Z,95713.95
2018-09-25T01:35:25.653Z,95718.02
2018-09-25T01:38:00.690Z,95722.44
2018-09-25T01:40:35.511Z,95723.52
2018-09-25T01:43:10.191Z,95733.14
2018-09-25T01:45:45.003Z,95741.12
2018-09-25T01:48:19.988Z,95748.93
2018-09-25T01:50:54.760Z,95749.86
2018-09-25T01:53:29.557Z,95766.95
2018-09-25T01:56:04.591Z,95778.25
2018-09-25T01:58:39.574Z,95782.20
2018-09-25T02:01:14.519Z,95778.61
2018-09-25T02:03:49.308Z,95778.80
2018-09-25T02:06:25.553Z,95786.92
2018-09-25T02:09:00.293Z,95777.58
2018-09-25T02:11:35.193Z,95791.95
2018-09-25T02:14:10.175Z,95793.23
2018-09-25T02:16:45.349Z,95799.03
2018-09-25T02:19:20.172Z,95802.66
2018-09-25T02:21:55.085Z,95800.41
2018-09-25T02:24:29.828Z,95803.47
2018-09-25T02:27:05.004Z,95807.33
2018-09-25T02:29:39.849Z,95807.98
2018-09-25T02:32:14.732Z,95812.48
2018-09-25T02:34:49.505Z,95815.05
2018-09-25T02:37:24.590Z,95819.41
2018-09-25T02:39:59.419Z,95823.84
2018-09-25T02:42:34.287Z,95825.67
2018-09-25T02:45:09.215Z,95813.00
2018-09-25T02:47:44.610Z,95819.54
2018-09-25T02:50:19.517Z,95826.88
2018-09-25T02:52:54.387Z,95838.23
2018-09-25T02:55:29.365Z,95836.97
2018-09-25T02:58:05.280Z,95837.44
2018-09-25T03:00:40.126Z,95859.77
2018-09-25T03:03:14.913Z,95859.20
2018-09-25T03:05:49.828Z,95857.01
2018-09-25T03:08:25.346Z,95849.30
2018-09-25T03:11:00.232Z,95854.70
2018-09-25T03:13:35.058Z,95861.78
2018-09-25T03:16:09.879Z,95861.16
2018-09-25T03:18:45.521Z,95872.11
2018-09-25T03:21:20.381Z,95877.40
2018-09-25T03:23:55.453Z,95877.87
2018-09-25T03:26:30.260Z,95885.55
2018-09-25T03:29:05.915Z,95894.20
2018-09-25T03:31:40.620Z,95895.70
2018-09-25T03:34:15.466Z,95893.33
2018-09-25T03:36:50.318Z,95897.89
2018-09-25T03:39:25.912Z,95900.83
2018-09-25T03:42:00.609Z,95909.17
2018-09-25T03:44:35.633Z,95915.37
2018-09-25T03:47:10.430Z,95911.38
2018-09-25T03:49:45.769Z,95911.22
2018-09-25T03:52:20.628Z,95914.33
2018-09-25T03:54:55.552Z,95911.47
2018-09-25T03:57:30.254Z,95911.86
2018-09-25T04:00:05.605Z,95915.61
2018-09-25T04:02:40.529Z,95921.33
2018-09-25T04:05:15.274Z,95918.92
2018-09-25T04:07:50.150Z,95931.52
2018-09-25T04:10:26.015Z,95924.34
2018-09-25T04:13:00.903Z,95923.98
2018-09-25T04:15:35.677Z,95927.75
2018-09-25T04:18:10.495Z,95924.12
2018-09-25T04:20:46.732Z,95924.68
2018-09-25T04:23:21.655Z,95929.36
2018-09-25T04:25:56.751Z,95929.14
2018-09-25T04:28:31.635Z,95936.57
2018-09-25T04:31:08.129Z,95934.41
2018-09-25T04:33:43.946Z,95935.23
2018-09-25T04:36:18.848Z,95937.03
2018-09-25T04:38:53.728Z,95931.27
2018-09-25T04:41:28.720Z,95940.20
2018-09-25T04:44:03.425Z,95941.95
2018-09-25T04:46:38.226Z,95947.96
2018-09-25T04:49:13.068Z,95948.13
2018-09-25T04:51:48.674Z,95956.06
2018-09-25T04:54:24.470Z,95962.68
2018-09-25T04:56:59.334Z,95957.44
2018-09-25T04:59:34.252Z,95966.45
2018-09-25T05:02:09.837Z,95975.52
2018-09-25T05:04:44.784Z,95973.95
2018-09-25T05:07:19.433Z,95975.59
2018-09-25T05:09:54.563Z,95985.26
2018-09-25T05:12:29.272Z,95980.80
2018-09-25T05:15:04.278Z,95991.43
2018-09-25T05:17:39.234Z,95995.86
2018-09-25T05:20:14.131Z,95997.33
2018-09-25T05:22:50.435Z,95994.30
2018-09-25T05:25:25.996Z,95990.17
2018-09-25T05:28:01.351Z,95984.69
2018-09-25T05:30:36.249Z,95985.00
2018-09-25T05:33:12.071Z,95996.02
2018-09-25T05:35:46.866Z,95988.53
2018-09-25T05:38:21.623Z,95986.95
2018-09-25T05:40:56.496Z,95995.78
2018-09-25T05:43:31.825Z,95994.45
2018-09-25T05:46:06.559Z,95984.22
2018-09-25T05:48:41.314Z,95988.28
2018-09-25T05:51:16.026Z,95989.52
2018-09-25T05:53:51.199Z,95996.48
2018-09-25T05:56:26.150Z,96003.27
2018-09-25T05:59:00.958Z,95998.38
2018-09-25T06:01:35.758Z,95994.77
2018-09-25T06:04:10.700Z,96007.11
2018-09-25T06:06:45.618Z,96011.93
2018-09-25T06:09:20.660Z,96005.92
2018-09-25T06:11:55.648Z,96009.36
2018-09-25T06:14:30.936Z,96009.16
2018-09-25T06:17:05.844Z,96019.73
2018-09-25T06:19:40.828Z,96016.83
2018-09-25T06:22:15.970Z,96023.27
2018-09-25T06:24:52.274Z,96021.63
2018-09-25T06:27:27.633Z,96018.44
2018-09-25T06:30:02.738Z,96030.35
2018-09-25T06:32:37.556Z,96038.75
2018-09-25T06:35:13.600Z,96037.75
2018-09-25T06:37:48.762Z,96045.52
2018-09-25T06:40:23.522Z,95450.41
2018-09-25T06:42:58.506Z,96044.66
2018-09-25T06:45:34.198Z,96048.62
2018-09-25T06:48:09.178Z,96050.03
2018-09-25T06:50:44.165Z,96052.11
2018-09-25T06:53:19.151Z,96052.39
2018-09-25T06:55:55.111Z,96052.95
2018-09-25T06:58:30.007Z,96056.45
2018-09-25T07:01:04.787Z,96060.30
2018-09-25T07:03:39.672Z,96066.64
2018-09-25T07:06:15.413Z,96065.89
2018-09-25T07:08:50.173Z,96061.23
2018-09-25T07:11:25.159Z,95834.25
2018-09-25T07:13:59.999Z,96056.72
2018-09-25T07:16:35.668Z,96065.25
2018-09-25T07:19:10.546Z,96064.92
2018-09-25T07:21:45.419Z,96064.17
2018-09-25T07:24:20.416Z,96061.17
2018-09-25T07:26:55.140Z,96066.30
2018-09-25T07:29:30.024Z,96062.41
2018-09-25T07:32:04.689Z,96063.07
2018-09-25T07:34:39.486Z,96057.58
2018-09-25T07:37:14.906Z,96060.09
2018-09-25T07:39:49.729Z,96063.50
2018-09-25T07:42:24.681Z,96057.88
2018-09-25T07:44:59.531Z,96068.65
2018-09-25T07:47:34.698Z,96068.50
2018-09-25T07:50:09.528Z,96065.90
2018-09-25T07:52:44.382Z,96060.77
2018-09-25T07:55:19.209Z,96065.27
2018-09-25T07:57:55.621Z,96067.37
2018-09-25T08:00:30.646Z,96064.00
2018-09-25T08:03:05.396Z,96060.78
2018-09-25T08:05:40.177Z,96066.49
2018-09-25T08:08:15.564Z,96059.81
2018-09-25T08:10:50.483Z,96051.30
2018-09-25T08:13:25.285Z,96045.08
2018-09-25T08:16:00.228Z,96042.12
2018-09-25T08:18:35.949Z,96039.42
2018-09-25T08:21:10.933Z,96034.87
2018-09-25T08:23:45.656Z,96030.84
2018-09-25T08:26:20.413Z,96036.59
2018-09-25T08:28:55.629Z,96034.36
2018-09-25T08:31:30.435Z,96032.96
2018-09-25T08:34:05.366Z,96037.06
2018-09-25T08:36:40.138Z,96030.03
2018-09-25T08:39:15.969Z,96030.70
2018-09-25T08:41:50.592Z,96032.73
2018-09-25T08:44:25.582Z,96029.10
2018-09-25T08:47:00.209Z,96025.37
2018-09-25T08:49:35.554Z,96028.78
2018-09-25T08:52:10.443Z,96025.67
2018-09-25T08:54:45.221Z,96025.72
2018-09-25T08:57:20.013Z,96028.91
2018-09-25T08:59:56.334Z,96010.69
2018-09-25T09:02:31.314Z,96011.53
2018-09-25T09:05:06.128Z,96011.30
2018-09-25T09:07:40.905Z,96001.23
2018-09-25T09:10:16.811Z,96006.00
2018-09-25T09:12:51.577Z,96004.11
2018-09-25T09:15:26.476Z,96003.02
2018-09-25T09:18:01.389Z,96001.81
2018-09-25T09:20:37.316Z,96000.10
2018-09-25T09:23:12.342Z,95791.87
2018-09-25T09:25:47.161Z,95998.19
2018-09-25T09:28:22.038Z,95991.52
2018-09-25T09:30:57.834Z,95989.75
2018-09-25T09:33:32.425Z,95995.64
2018-09-25T09:36:07.272Z,95990.00
2018-09-25T09:38:42.082Z,95994.79
2018-09-25T09:41:18.004Z,95990.75
2018-09-25T09:43:52.901Z,95995.78
2018-09-25T09:46:27.789Z,95997.39
2018-09-25T09:49:02.527Z,95997.70
2018-09-25T09:51:37.509Z,95993.01
2018-09-25T09:54:12.371Z,95984.56
2018-09-25T09:56:47.142Z,95974.06
2018-09-25T09:59:21.878Z,95973.83
2018-09-25T10:01:57.749Z,95970.94
2018-09-25T10:04:32.489Z,95981.70
2018-09-25T10:07:07.007Z,95983.11
2018-09-25T10:09:41.693Z,95988.88
2018-09-25T10:12:17.489Z,95989.28
2018-09-25T10:14:52.414Z,95988.44
2018-09-25T10:17:27.440Z,95968.56
2018-09-25T10:20:02.053Z,95974.66
2018-09-25T10:22:37.459Z,95979.02
2018-09-25T10:25:12.341Z,95985.88
2018-09-25T10:27:47.358Z,95990.06
2018-09-25T10:30:22.284Z,95978.45
2018-09-25T10:32:57.086Z,95982.40
2018-09-25T10:35:32.039Z,95977.22
2018-09-25T10:38:06.826Z,95980.99
2018-09-25T10:40:41.731Z,95975.31
2018-09-25T10:43:16.739Z,95983.07
2018-09-25T10:45:51.570Z,95976.23
2018-09-25T10:48:26.495Z,95983.53
2018-09-25T10:51:01.429Z,95973.92
2018-09-25T10:53:37.282Z,95971.63
2018-09-25T10:56:12.193Z,95966.41
2018-09-25T10:58:46.951Z,95975.50
2018-09-25T11:01:21.644Z,95971.80
2018-09-25T11:03:57.239Z,95969.27
2018-09-25T11:06:32.163Z,95968.67
2018-09-25T11:09:07.236Z,95962.42
2018-09-25T11:11:42.096Z,95963.03
2018-09-25T11:14:17.770Z,95961.39
2018-09-25T11:16:52.671Z,95964.75
2018-09-25T11:19:27.520Z,95963.61
2018-09-25T11:22:02.313Z,95956.85
2018-09-25T11:24:37.241Z,95949.94
2018-09-25T11:27:12.050Z,95948.18
2018-09-25T11:29:46.896Z,95942.81
2018-09-25T11:32:21.871Z,95940.08
2018-09-25T11:34:57.093Z,95947.52
2018-09-25T11:37:31.929Z,95943.38
2018-09-25T11:40:06.802Z,95940.81
2018-09-25T11:42:41.661Z,95944.73
2018-09-25T11:45:16.993Z,95933.17
2018-09-25T11:47:51.938Z,95932.20
2018-09-25T11:50:26.730Z,95928.23
2018-09-25T11:53:01.628Z,95928.53
2018-09-25T11:55:36.605Z,95914.05
2018-09-25T11:58:11.703Z,95918.92
2018-09-25T12:00:46.730Z,95917.13
2018-09-25T12:03:21.516Z,95903.30
2018-09-25T12:05:58.056Z,95909.13
2018-09-25T12:08:32.916Z,95911.05
2018-09-25T12:11:07.893Z,95908.33
2018-09-25T12:13:42.736Z,95899.56
2018-09-25T12:16:19.473Z,95903.09
2018-09-25T12:18:54.251Z,95907.36
2018-09-25T12:21:28.959Z,95898.40
2018-09-25T12:24:03.872Z,95893.72
2018-09-25T12:26:39.520Z,95898.88
2018-09-25T12:29:14.309Z,95897.50
2018-09-25T12:31:49.116Z,95903.15
2018-09-25T12:34:24.006Z,95905.91
2018-09-25T12:36:59.710Z,95895.55
2018-09-25T12:39:34.514Z,95895.24
2018-09-25T12:42:09.609Z,95894.25
2018-09-25T12:44:44.415Z,95893.48
2018-09-25T12:47:19.382Z,95899.04
2018-09-25T12:50:01.314Z,95891.06
2018-09-25T12:52:36.186Z,95896.73
2018-09-25T12:55:11.210Z,95898.66
2018-09-25T12:57:46.123Z,95902.52
2018-09-25T13:00:20.821Z,95902.42
2018-09-25T13:02:55.701Z,95905.31
2018-09-25T13:05:30.796Z,95911.23
2018-09-25T13:08:05.681Z,95897.86
2018-09-25T13:10:40.386Z,95891.70
2018-09-25T13:13:15.224Z,95894.16
2018-09-25T13:15:50.506Z,95893.11
2018-09-25T13:18:25.478Z,95896.63
2018-09-25T13:21:00.165Z,95893.87
2018-09-25T13:23:34.881Z,95898.17
2018-09-25T13:26:09.645Z,95894.91
2018-09-25T13:28:44.400Z,95899.23
2018-09-25T13:31:19.233Z,95895.34
2018-09-25T13:33:53.967Z,95898.52
2018-09-25T13:36:29.519Z,95902.88
2018-09-25T13:39:04.476Z,95906.05
2018-09-25T13:41:39.397Z,95910.57
2018-09-25T13:44:14.283Z,95914.39
2018-09-25T13:46:49.681Z,95906.73
2018-09-25T13:49:24.405Z,95907.19
2018-09-25T13:51:59.214Z,95913.53
2018-09-25T13:54:33.861Z,95919.94
2018-09-25T13:57:09.181Z,95919.91
2018-09-25T13:59:43.989Z,95917.75
2018-09-25T14:02:18.629Z,95918.80
2018-09-25T14:04:53.450Z,95918.98
2018-09-25T14:07:28.694Z,95929.98
2018-09-25T14:10:04.046Z,95926.09
2018-09-25T14:12:39.087Z,95933.96
2018-09-25T14:15:14.057Z,95931.09
2018-09-25T14:17:49.332Z,95944.44
2018-09-25T14:20:24.127Z,95945.80
2018-09-25T14:22:59.161Z,95944.77
2018-09-25T14:25:33.990Z,95950.06
2018-09-25T14:28:09.744Z,95952.02
2018-09-25T14:30:44.612Z,95948.96
2018-09-25T14:33:19.453Z,95939.14
2018-09-25T14:35:54.291Z,95947.63
2018-09-25T14:38:29.825Z,95949.15
2018-09-25T14:41:04.606Z,95953.55
2018-09-25T14:43:39.595Z,95739.47
2018-09-25T14:46:14.299Z,95960.49
2018-09-25T14:48:49.930Z,95976.44
2018-09-25T14:51:24.627Z,95968.98
2018-09-25T14:53:59.453Z,95973.30
2018-09-25T14:56:34.270Z,95976.94
2018-09-25T14:59:10.013Z,95988.42
2018-09-25T15:01:44.831Z,95982.56
2018-09-25T15:04:19.549Z,95985.34
2018-09-25T15:06:54.360Z,95994.28
2018-09-25T15:09:29.230Z,96009.33
2018-09-25T15:12:04.413Z,96003.75
2018-09-25T15:14:39.232Z,96012.30
2018-09-25T15:17:14.137Z,96014.58
2018-09-25T15:19:49.579Z,96026.52
2018-09-25T15:22:24.489Z,96033.02
2018-09-25T15:24:59.412Z,96040.79
2018-09-25T15:27:34.274Z,96041.16
2018-09-25T15:30:09.940Z,96049.65
2018-09-25T15:32:44.973Z,96053.25
2018-09-25T15:35:19.791Z,96055.89
2018-09-25T15:37:54.546Z,96067.87
2018-09-25T15:40:29.942Z,96067.20
2018-09-25T15:43:04.850Z,96077.29
2018-09-25T15:45:39.724Z,96076.30
2018-09-25T15:48:14.649Z,96091.80
2018-09-25T15:50:50.618Z,96095.16
2018-09-25T15:53:25.548Z,96101.27
2018-09-25T15:56:00.483Z,96099.70
2018-09-25T15:58:35.370Z,96109.20
2018-09-25T16:01:10.782Z,96113.96
2018-09-25T16:03:45.673Z,96113.83
2018-09-25T16:06:20.706Z,96116.55
2018-09-25T16:08:55.550Z,96123.94
2018-09-25T16:11:30.614Z,96081.77
2018-09-25T16:14:06.008Z,96135.23
2018-09-25T16:16:40.785Z,96146.14
2018-09-25T16:19:15.579Z,96153.80
2018-09-25T16:21:51.351Z,96164.31
2018-09-25T16:24:26.225Z,96170.60
2018-09-25T16:27:01.229Z,96173.52
2018-09-25T16:29:36.079Z,96176.64
2018-09-25T16:32:12.128Z,96184.06
2018-09-25T16:34:46.886Z,96187.13
2018-09-25T16:37:21.833Z,96186.19
2018-09-25T16:39:56.751Z,96194.64
2018-09-25T16:42:32.478Z,96204.92
2018-09-25T16:45:07.472Z,96208.25
2018-09-25T16:47:42.388Z,96211.84
2018-09-25T16:50:17.233Z,96218.63
2018-09-25T16:52:53.073Z,96229.91
2018-09-25T16:55:27.895Z,96238.71
2018-09-25T16:58:02.781Z,96245.34
2018-09-25T17:00:37.732Z,96257.22
2018-09-25T17:03:13.758Z,96260.13
2018-09-25T17:05:48.616Z,96257.97
2018-09-25T17:08:23.605Z,96268.36
2018-09-25T17:10:58.354Z,96275.89
2018-09-25T17:13:33.321Z,96278.91
2018-09-25T17:16:08.759Z,96275.78
2018-09-25T17:18:43.558Z,96281.60
2018-09-25T17:21:18.468Z,96286.47
2018-09-25T17:23:53.514Z,96286.83
2018-09-25T17:26:28.465Z,96300.30
2018-09-25T17:29:03.449Z,96304.55
2018-09-25T17:31:38.308Z,96312.83
2018-09-25T17:34:14.327Z,96316.28
2018-09-25T17:36:49.089Z,96324.14
2018-09-25T17:39:23.837Z,96274.44
2018-09-25T17:41:58.748Z,96326.37
2018-09-25T17:44:33.485Z,96332.82
2018-09-25T17:47:08.345Z,96336.47
2018-09-25T17:49:43.198Z,96340.48
2018-09-25T17:52:18.084Z,96338.61
2018-09-25T17:54:54.036Z,96346.33
2018-09-25T17:57:28.706Z,96352.36
2018-09-25T18:00:03.420Z,96356.66
2018-09-25T18:02:38.359Z,96361.35
2018-09-25T18:05:13.873Z,96361.89
2018-09-25T18:07:48.695Z,96366.09
2018-09-25T18:10:23.593Z,96370.06
2018-09-25T18:12:58.325Z,96378.52
2018-09-25T18:15:33.702Z,96378.79
2018-09-25T18:18:08.931Z,96390.67
2018-09-25T18:20:43.635Z,96386.16
2018-09-25T18:23:18.425Z,96392.59
2018-09-25T18:25:53.890Z,96392.58
2018-09-25T18:28:28.950Z,96401.05
2018-09-25T18:31:03.765Z,96404.92
2018-09-25T18:33:38.673Z,96404.56
2018-09-25T18:36:13.992Z,96408.05
2018-09-25T18:38:49.123Z,96409.17
2018-09-25T18:41:23.881Z,96419.56
2018-09-25T18:43:58.658Z,96415.10
2018-09-25T18:46:33.935Z,96420.20
2018-09-25T18:49:08.806Z,96418.61
2018-09-25T18:51:43.524Z,96426.37
2018-09-25T18:54:18.260Z,96423.17
2018-09-25T18:56:53.134Z,96430.57
2018-09-25T18:59:27.924Z,96434.32
2018-09-25T19:02:02.709Z,96438.85
2018-09-25T19:04:37.477Z,96441.58
2018-09-25T19:07:12.941Z,96441.29
2018-09-25T19:09:47.616Z,96450.89
2018-09-25T19:12:22.378Z,96450.91
2018-09-25T19:14:57.270Z,96452.77
2018-09-25T19:17:32.659Z,96460.53
2018-09-25T19:20:07.666Z,96458.10
2018-09-25T19:22:42.297Z,96458.84
2018-09-25T19:25:17.261Z,96462.84
2018-09-25T19:27:52.264Z,96469.59
2018-09-25T19:30:27.226Z,96423.35
2018-09-25T19:33:02.133Z,96477.23
2018-09-25T19:35:36.792Z,96479.19
2018-09-25T19:38:12.429Z,96478.40
2018-09-25T19:40:47.309Z,96483.98
2018-09-25T19:43:22.053Z,96493.89
2018-09-25T19:45:56.917Z,96502.42
2018-09-25T19:48:32.687Z,96502.42
2018-09-25T19:51:07.226Z,96510.55
2018-09-25T19:53:42.075Z,96510.78
2018-09-25T19:56:17.099Z,96513.18
2018-09-25T19:58:51.763Z,96513.09
2018-09-25T20:01:26.509Z,96520.54
2018-09-25T20:04:01.120Z,96523.52
2018-09-25T20:06:36.135Z,96525.39
2018-09-25T20:09:13.942Z,96524.77
2018-09-25T20:11:48.958Z,96527.21
2018-09-25T20:14:24.008Z,96528.27
2018-09-25T20:16:58.938Z,96521.90
2018-09-25T20:19:34.815Z,96534.00
2018-09-25T20:22:09.969Z,96529.97
2018-09-25T20:24:44.724Z,96542.44
2018-09-25T20:27:19.453Z,96545.89
2018-09-25T20:29:54.724Z,96541.39
2018-09-25T20:32:29.330Z,96540.67
2018-09-25T20:35:04.119Z,96546.46
2018-09-25T20:37:38.977Z,96548.86
2018-09-25T20:40:14.709Z,96548.96
2018-09-25T20:42:49.386Z,96554.23
2018-09-25T20:45:24.265Z,96559.50
2018-09-25T20:47:59.105Z,96559.30
2018-09-25T20:50:34.150Z,96559.46
2018-09-25T20:53:08.876Z,96562.95
2018-09-25T20:55:43.572Z,96561.27
2018-09-25T20:58:18.318Z,96564.82
2018-09-25T21:00:54.297Z,96563.98
2018-09-25T21:03:29.228Z,96565.66
2018-09-25T21:06:04.026Z,96562.56
2018-09-25T21:08:38.989Z,96562.94
2018-09-25T21:11:14.853Z,96560.41
2018-09-25T21:13:49.816Z,96563.41
2018-09-25T21:16:24.716Z,96570.73
2018-09-25T21:18:59.553Z,96570.06
2018-09-25T21:21:35.174Z,96567.03
2018-09-25T21:24:10.188Z,96571.53
2018-09-25T21:26:45.189Z,96566.50
2018-09-25T21:29:19.972Z,96571.30
2018-09-25T21:31:54.845Z,96571.98
2018-09-25T21:34:29.545Z,96575.36
2018-09-25T21:37:04.550Z,96571.72
2018-09-25T21:39:39.244Z,96574.73
2018-09-25T21:42:14.702Z,96569.25
2018-09-25T21:44:49.599Z,96574.68
2018-09-25T21:47:24.382Z,96575.62
2018-09-25T21:49:59.212Z,96583.00
2018-09-25T21:52:34.408Z,96581.28
2018-09-25T21:55:09.314Z,96579.34
2018-09-25T21:57:44.259Z,96575.34
2018-09-25T22:00:19.085Z,96581.69
2018-09-25T22:02:53.928Z,96583.46
2018-09-25T22:05:28.685Z,96586.08
2018-09-25T22:08:03.499Z,96589.70
2018-09-25T22:10:38.496Z,96589.03
2018-09-25T22:13:14.073Z,96590.88
2018-09-25T22:15:48.889Z,96590.83
2018-09-25T22:18:23.928Z,96594.74
2018-09-25T22:20:58.777Z,96592.72
2018-09-25T22:23:34.546Z,96592.30
2018-09-25T22:26:09.926Z,96595.60
2018-09-25T22:28:44.703Z,96593.80
2018-09-25T22:31:19.563Z,96591.66
2018-09-25T22:33:55.383Z,96592.66
2018-09-25T22:36:30.753Z,96598.23
2018-09-25T22:39:05.704Z,96594.00
2018-09-25T22:41:40.774Z,96602.56
2018-09-25T22:44:15.627Z,96609.76
2018-09-25T22:46:50.637Z,96608.71
2018-09-25T22:49:25.353Z,96607.09
2018-09-25T22:52:00.216Z,96608.12
2018-09-25T22:54:35.486Z,96614.48
2018-09-25T22:57:10.282Z,96629.43
2018-09-25T22:59:45.378Z,96634.06
2018-09-25T23:02:20.337Z,96629.12
2018-09-25T23:04:55.182Z,96633.08
2018-09-25T23:07:30.069Z,96631.74
2018-09-25T23:10:04.961Z,96636.22
2018-09-25T23:12:39.928Z,96636.61
2018-09-25T23:15:15.345Z,96637.14
2018-09-25T23:17:50.242Z,96647.69
2018-09-25T23:20:25.087Z,96647.09
2018-09-25T23:22:59.970Z,96651.49
2018-09-25T23:25:35.350Z,96657.05
2018-09-25T23:28:10.789Z,96661.27
2018-09-25T23:30:46.366Z,96656.95
2018-09-25T23:33:21.508Z,96655.66
2018-09-25T23:35:56.428Z,96663.20
2018-09-25T23:38:31.341Z,96659.47
2018-09-25T23:41:11.923Z,96661.95
2018-09-25T23:43:45.764Z,96661.55
2018-09-25T23:46:21.945Z,96664.50
2018-09-25T23:48:58.503Z,96664.56
2018-09-25T23:52:05.796Z,96668.85
2018-09-25T23:54:54.244Z,96662.37
2018-09-25T23:57:30.249Z,96669.33
